sensor_id;sensor_type;location;lat;lon;timestamp;pressure;altitude;pressure_sealevel;temperature;humidity
15477;BME280;7840;42.702;23.296;2022-11-04T00:00:21;95229.66;;;11.44;93.43
15477;BME280;7840;42.702;23.296;2022-11-04T00:02:51;95225.88;;;11.18;94.79
15477;BME280;7840;42.702;23.296;2022-11-04T00:05:55;95222.97;;;10.98;98.73
15477;BME280;7840;42.702;23.296;2022-11-04T00:08:22;95227.28;;;11.04;97.86
15477;BME280;7840;42.702;23.296;2022-11-04T00:10:53;95226.91;;;10.95;98.50
15477;BME280;7840;42.702;23.296;2022-11-04T00:13:38;95227.09;;;10.88;99.24
15477;BME280;7840;42.702;23.296;2022-11-04T00:16:06;95228.81;;;10.78;100.00
15477;BME280;7840;42.702;23.296;2022-11-04T00:18:51;95220.41;;;10.64;100.00
15477;BME280;7840;42.702;23.296;2022-11-04T00:21:20;95218.53;;;10.48;100.00
15477;BME280;7840;42.702;23.296;2022-11-04T00:24:07;95223.97;;;10.75;100.00
15477;BME280;7840;42.702;23.296;2022-11-04T00:26:53;95229.81;;;10.77;100.00
15477;BME280;7840;42.702;23.296;2022-11-04T00:29:38;95217.78;;;10.69;100.00
15477;BME280;7840;42.702;23.296;2022-11-04T00:32:06;95216.28;;;10.73;100.00
15477;BME280;7840;42.702;23.296;2022-11-04T00:34:51;95215.84;;;10.81;100.00
15477;BME280;7840;42.702;23.296;2022-11-04T00:37:20;95209.50;;;10.82;100.00
15477;BME280;7840;42.702;23.296;2022-11-04T00:39:59;95206.66;;;10.67;100.00
15477;BME280;7840;42.702;23.296;2022-11-04T00:42:27;95207.69;;;10.66;100.00
15477;BME280;7840;42.702;23.296;2022-11-04T00:44:54;95205.78;;;10.28;100.00
15477;BME280;7840;42.702;23.296;2022-11-04T00:47:22;95207.47;;;10.17;100.00
15477;BME280;7840;42.702;23.296;2022-11-04T00:49:50;95207.75;;;10.21;100.00
15477;BME280;7840;42.702;23.296;2022-11-04T00:52:21;95203.41;;;10.43;100.00
15477;BME280;7840;42.702;23.296;2022-11-04T00:55:03;95199.03;;;10.54;100.00
15477;BME280;7840;42.702;23.296;2022-11-04T00:57:31;95196.94;;;10.56;100.00
15477;BME280;7840;42.702;23.296;2022-11-04T00:59:59;95194.38;;;10.10;100.00
15477;BME280;7840;42.702;23.296;2022-11-04T01:02:27;95192.63;;;10.16;100.00
15477;BME280;7840;42.702;23.296;2022-11-04T01:04:57;95192.94;;;10.20;100.00
15477;BME280;7840;42.702;23.296;2022-11-04T01:07:26;95191.91;;;10.04;100.00
15477;BME280;7840;42.702;23.296;2022-11-04T01:09:54;95196.13;;;10.22;100.00
15477;BME280;7840;42.702;23.296;2022-11-04T01:12:21;95184.69;;;10.16;100.00
15477;BME280;7840;42.702;23.296;2022-11-04T01:14:49;95183.13;;;9.86;100.00
15477;BME280;7840;42.702;23.296;2022-11-04T01:17:17;95179.56;;;9.64;100.00
15477;BME280;7840;42.702;23.296;2022-11-04T01:19:45;95173.91;;;9.44;100.00
15477;BME280;7840;42.702;23.296;2022-11-04T01:22:12;95171.72;;;9.69;100.00
15477;BME280;7840;42.702;23.296;2022-11-04T01:24:41;95166.28;;;9.93;100.00
15477;BME280;7840;42.702;23.296;2022-11-04T01:27:11;95166.47;;;10.03;100.00
15477;BME280;7840;42.702;23.296;2022-11-04T01:29:41;95165.19;;;10.05;100.00
15477;BME280;7840;42.702;23.296;2022-11-04T01:32:09;95167.75;;;10.00;100.00
15477;BME280;7840;42.702;23.296;2022-11-04T01:34:44;95166.94;;;9.83;100.00
15477;BME280;7840;42.702;23.296;2022-11-04T01:37:12;95164.53;;;9.36;100.00
15477;BME280;7840;42.702;23.296;2022-11-04T01:39:41;95168.44;;;9.34;100.00
15477;BME280;7840;42.702;23.296;2022-11-04T01:42:13;95168.13;;;9.47;100.00
15477;BME280;7840;42.702;23.296;2022-11-04T01:44:59;95156.22;;;9.44;100.00
15477;BME280;7840;42.702;23.296;2022-11-04T01:47:31;95160.97;;;9.59;100.00
15477;BME280;7840;42.702;23.296;2022-11-04T01:50:06;95159.72;;;9.78;100.00
15477;BME280;7840;42.702;23.296;2022-11-04T01:52:38;95161.06;;;9.64;100.00
15477;BME280;7840;42.702;23.296;2022-11-04T01:55:12;95155.66;;;9.59;100.00
15477;BME280;7840;42.702;23.296;2022-11-04T01:57:46;95160.97;;;9.59;100.00
15477;BME280;7840;42.702;23.296;2022-11-04T02:00:15;95155.16;;;9.45;100.00
15477;BME280;7840;42.702;23.296;2022-11-04T02:02:50;95146.16;;;9.29;100.00
15477;BME280;7840;42.702;23.296;2022-11-04T02:05:20;95155.59;;;9.25;100.00
15477;BME280;7840;42.702;23.296;2022-11-04T02:07:50;95152.28;;;9.47;100.00
15477;BME280;7840;42.702;23.296;2022-11-04T02:10:23;95149.91;;;9.62;100.00
15477;BME280;7840;42.702;23.296;2022-11-04T02:12:52;95138.31;;;9.35;100.00
15477;BME280;7840;42.702;23.296;2022-11-04T02:15:26;95144.72;;;9.39;100.00
15477;BME280;7840;42.702;23.296;2022-11-04T02:18:15;95141.34;;;9.26;100.00
15477;BME280;7840;42.702;23.296;2022-11-04T02:27:00;95141.69;;;9.47;100.00
15477;BME280;7840;42.702;23.296;2022-11-04T02:29:54;95135.31;;;9.59;100.00
15477;BME280;7840;42.702;23.296;2022-11-04T02:32:44;95129.22;;;9.59;100.00
15477;BME280;7840;42.702;23.296;2022-11-04T02:35:22;95138.28;;;9.63;100.00
15477;BME280;7840;42.702;23.296;2022-11-04T02:37:59;95134.06;;;9.62;100.00
15477;BME280;7840;42.702;23.296;2022-11-04T02:40:33;95131.06;;;9.58;100.00
15477;BME280;7840;42.702;23.296;2022-11-04T02:43:14;95123.94;;;9.59;100.00
15477;BME280;7840;42.702;23.296;2022-11-04T02:45:55;95128.75;;;9.62;100.00
15477;BME280;7840;42.702;23.296;2022-11-04T02:48:36;95138.59;;;9.50;100.00
15477;BME280;7840;42.702;23.296;2022-11-04T02:51:14;95135.00;;;8.99;100.00
15477;BME280;7840;42.702;23.296;2022-11-04T02:53:44;95129.25;;;9.02;100.00
15477;BME280;7840;42.702;23.296;2022-11-04T02:56:14;95127.44;;;9.19;100.00
15477;BME280;7840;42.702;23.296;2022-11-04T02:58:47;95127.84;;;9.11;100.00
15477;BME280;7840;42.702;23.296;2022-11-04T03:01:23;95133.78;;;9.18;100.00
15477;BME280;7840;42.702;23.296;2022-11-04T03:03:59;95129.22;;;9.14;100.00
15477;BME280;7840;42.702;23.296;2022-11-04T03:06:28;95134.72;;;9.12;100.00
15477;BME280;7840;42.702;23.296;2022-11-04T03:08:57;95130.44;;;8.83;100.00
15477;BME280;7840;42.702;23.296;2022-11-04T03:11:27;95128.19;;;8.74;100.00
15477;BME280;7840;42.702;23.296;2022-11-04T03:13:58;95127.28;;;8.57;100.00
15477;BME280;7840;42.702;23.296;2022-11-04T03:16:34;95116.06;;;8.27;100.00
15477;BME280;7840;42.702;23.296;2022-11-04T03:19:10;95122.97;;;8.39;100.00
15477;BME280;7840;42.702;23.296;2022-11-04T03:21:44;95125.66;;;8.68;100.00
15477;BME280;7840;42.702;23.296;2022-11-04T03:24:17;95121.06;;;8.63;100.00
15477;BME280;7840;42.702;23.296;2022-11-04T03:26:50;95129.91;;;8.69;100.00
15477;BME280;7840;42.702;23.296;2022-11-04T03:29:25;95133.66;;;8.85;100.00
15477;BME280;7840;42.702;23.296;2022-11-04T03:32:04;95123.03;;;8.68;100.00
15477;BME280;7840;42.702;23.296;2022-11-04T03:34:34;95125.09;;;8.66;100.00
15477;BME280;7840;42.702;23.296;2022-11-04T03:37:03;95131.06;;;8.73;100.00
15477;BME280;7840;42.702;23.296;2022-11-04T03:39:31;95130.03;;;8.62;100.00
15477;BME280;7840;42.702;23.296;2022-11-04T03:42:01;95136.09;;;8.74;100.00
15477;BME280;7840;42.702;23.296;2022-11-04T03:44:46;95126.72;;;8.43;100.00
15477;BME280;7840;42.702;23.296;2022-11-04T03:47:16;95121.13;;;8.40;100.00
15477;BME280;7840;42.702;23.296;2022-11-04T03:49:45;95122.84;;;8.46;100.00
15477;BME280;7840;42.702;23.296;2022-11-04T03:52:14;95112.72;;;8.31;100.00
15477;BME280;7840;42.702;23.296;2022-11-04T03:54:43;95122.59;;;8.47;100.00
15477;BME280;7840;42.702;23.296;2022-11-04T03:57:37;95115.03;;;8.51;100.00
15477;BME280;7840;42.702;23.296;2022-11-04T04:00:10;95122.34;;;8.61;100.00
15477;BME280;7840;42.702;23.296;2022-11-04T04:02:46;95115.78;;;8.63;100.00
15477;BME280;7840;42.702;23.296;2022-11-04T04:05:19;95122.22;;;8.67;100.00
15477;BME280;7840;42.702;23.296;2022-11-04T04:07:51;95117.75;;;8.68;100.00
15477;BME280;7840;42.702;23.296;2022-11-04T04:10:27;95114.69;;;8.47;100.00
15477;BME280;7840;42.702;23.296;2022-11-04T04:13:22;95117.69;;;8.51;100.00
15477;BME280;7840;42.702;23.296;2022-11-04T04:15:55;95109.41;;;8.36;100.00
15477;BME280;7840;42.702;23.296;2022-11-04T04:18:29;95117.56;;;8.46;100.00
15477;BME280;7840;42.702;23.296;2022-11-04T04:21:02;95113.88;;;8.23;100.00
15477;BME280;7840;42.702;23.296;2022-11-04T04:23:32;95114.69;;;8.36;100.00
15477;BME280;7840;42.702;23.296;2022-11-04T04:26:20;95112.03;;;8.12;100.00
15477;BME280;7840;42.702;23.296;2022-11-04T04:29:07;95107.56;;;8.01;100.00
15477;BME280;7840;42.702;23.296;2022-11-04T04:31:39;95106.41;;;8.20;100.00
15477;BME280;7840;42.702;23.296;2022-11-04T04:34:24;95100.44;;;8.37;100.00
15477;BME280;7840;42.702;23.296;2022-11-04T04:36:59;95102.41;;;8.41;100.00
15477;BME280;7840;42.702;23.296;2022-11-04T04:39:34;95104.94;;;8.48;100.00
15477;BME280;7840;42.702;23.296;2022-11-04T04:42:20;95109.75;;;8.51;100.00
15477;BME280;7840;42.702;23.296;2022-11-04T04:45:07;95110.78;;;8.50;100.00
15477;BME280;7840;42.702;23.296;2022-11-04T04:47:41;95114.81;;;8.53;100.00
15477;BME280;7840;42.702;23.296;2022-11-04T04:50:12;95100.69;;;8.47;100.00
15477;BME280;7840;42.702;23.296;2022-11-04T04:52:44;95109.41;;;8.36;100.00
15477;BME280;7840;42.702;23.296;2022-11-04T04:55:15;95111.69;;;8.44;100.00
15477;BME280;7840;42.702;23.296;2022-11-04T04:57:43;95121.44;;;8.43;100.00
15477;BME280;7840;42.702;23.296;2022-11-04T05:00:15;95115.97;;;8.45;100.00
15477;BME280;7840;42.702;23.296;2022-11-04T05:02:43;95101.81;;;8.28;100.00
15477;BME280;7840;42.702;23.296;2022-11-04T05:05:16;95109.41;;;8.36;100.00
15477;BME280;7840;42.702;23.296;2022-11-04T05:07:43;95121.81;;;8.35;100.00
15477;BME280;7840;42.702;23.296;2022-11-04T05:10:14;95120.09;;;8.17;100.00
15477;BME280;7840;42.702;23.296;2022-11-04T05:12:42;95123.41;;;8.25;100.00
15477;BME280;7840;42.702;23.296;2022-11-04T05:15:28;95118.13;;;8.25;100.00
15477;BME280;7840;42.702;23.296;2022-11-04T05:17:58;95121.56;;;8.37;100.00
15477;BME280;7840;42.702;23.296;2022-11-04T05:20:27;95122.25;;;8.44;100.00
15477;BME280;7840;42.702;23.296;2022-11-04T05:22:55;95114.94;;;8.46;100.00
15477;BME280;7840;42.702;23.296;2022-11-04T05:25:23;95119.72;;;8.49;100.00
15477;BME280;7840;42.702;23.296;2022-11-04T05:28:00;95124.31;;;8.54;100.00
15477;BME280;7840;42.702;23.296;2022-11-04T05:30:28;95128.69;;;8.60;100.00
15477;BME280;7840;42.702;23.296;2022-11-04T05:32:55;95132.34;;;8.59;100.00
15477;BME280;7840;42.702;23.296;2022-11-04T05:35:23;95134.19;;;8.58;100.00
15477;BME280;7840;42.702;23.296;2022-11-04T05:37:54;95130.03;;;8.62;100.00
15477;BME280;7840;42.702;23.296;2022-11-04T05:40:22;95137.84;;;8.57;100.00
15477;BME280;7840;42.702;23.296;2022-11-04T05:42:49;95140.59;;;8.62;100.00
15477;BME280;7840;42.702;23.296;2022-11-04T05:45:17;95148.16;;;8.70;100.00
15477;BME280;7840;42.702;23.296;2022-11-04T05:47:45;95144.03;;;8.74;100.00
15477;BME280;7840;42.702;23.296;2022-11-04T05:50:14;95147.81;;;8.79;100.00
15477;BME280;7840;42.702;23.296;2022-11-04T05:52:48;95151.25;;;8.79;100.00
15477;BME280;7840;42.702;23.296;2022-11-04T05:55:30;95151.47;;;8.89;100.00
15477;BME280;7840;42.702;23.296;2022-11-04T05:58:00;95149.59;;;9.01;100.00
15477;BME280;7840;42.702;23.296;2022-11-04T06:00:28;95149.88;;;9.17;100.00
15477;BME280;7840;42.702;23.296;2022-11-04T06:02:56;95151.44;;;9.29;100.00
15477;BME280;7840;42.702;23.296;2022-11-04T06:05:24;95147.97;;;9.41;100.00
15477;BME280;7840;42.702;23.296;2022-11-04T06:07:52;95157.09;;;9.50;100.00
15477;BME280;7840;42.702;23.296;2022-11-04T06:10:19;95152.22;;;9.58;100.00
15477;BME280;7840;42.702;23.296;2022-11-04T06:12:48;95150.81;;;9.68;100.00
15477;BME280;7840;42.702;23.296;2022-11-04T06:15:16;95153.78;;;9.71;100.00
15477;BME280;7840;42.702;23.296;2022-11-04T06:17:43;95151.88;;;9.83;100.00
15477;BME280;7840;42.702;23.296;2022-11-04T06:20:11;95152.09;;;9.99;100.00
15477;BME280;7840;42.702;23.296;2022-11-04T06:22:39;95155.00;;;10.14;100.00
15477;BME280;7840;42.702;23.296;2022-11-04T06:25:40;95150.28;;;10.16;100.00
15477;BME280;7840;42.702;23.296;2022-11-04T06:28:26;95151.72;;;10.40;100.00
15477;BME280;7840;42.702;23.296;2022-11-04T06:30:57;95161.16;;;10.53;100.00
15477;BME280;7840;42.702;23.296;2022-11-04T06:33:29;95149.97;;;10.68;100.00
15477;BME280;7840;42.702;23.296;2022-11-04T06:35:58;95157.44;;;10.71;100.00
15477;BME280;7840;42.702;23.296;2022-11-04T06:38:29;95159.41;;;10.81;100.00
15477;BME280;7840;42.702;23.296;2022-11-04T06:40:57;95152.69;;;10.73;100.00
15477;BME280;7840;42.702;23.296;2022-11-04T06:43:26;95168.31;;;10.91;100.00
15477;BME280;7840;42.702;23.296;2022-11-04T06:45:54;95159.34;;;10.98;100.00
15477;BME280;7840;42.702;23.296;2022-11-04T06:48:23;95163.31;;;10.95;100.00
15477;BME280;7840;42.702;23.296;2022-11-04T06:50:52;95155.34;;;10.95;100.00
15477;BME280;7840;42.702;23.296;2022-11-04T06:53:23;95155.72;;;11.04;100.00
15477;BME280;7840;42.702;23.296;2022-11-04T06:55:51;95163.47;;;11.32;100.00
15477;BME280;7840;42.702;23.296;2022-11-04T06:58:21;95147.06;;;11.35;100.00
15477;BME280;7840;42.702;23.296;2022-11-04T07:00:54;95147.28;;;11.56;100.00
15477;BME280;7840;42.702;23.296;2022-11-04T07:03:22;95144.03;;;11.48;100.00
15477;BME280;7840;42.702;23.296;2022-11-04T07:05:50;95145.88;;;11.48;100.00
15477;BME280;7840;42.702;23.296;2022-11-04T07:08:18;95148.53;;;11.75;100.00
15477;BME280;7840;42.702;23.296;2022-11-04T07:10:45;95141.56;;;11.96;100.00
15477;BME280;7840;42.702;23.296;2022-11-04T07:13:13;95138.03;;;12.17;100.00
15477;BME280;7840;42.702;23.296;2022-11-04T07:15:41;95141.59;;;12.33;100.00
15477;BME280;7840;42.702;23.296;2022-11-04T07:18:10;95138.00;;;12.54;100.00
15477;BME280;7840;42.702;23.296;2022-11-04T07:20:38;95137.47;;;12.52;100.00
15477;BME280;7840;42.702;23.296;2022-11-04T07:23:08;95135.91;;;12.56;100.00
15477;BME280;7840;42.702;23.296;2022-11-04T07:25:35;95127.47;;;12.75;100.00
15477;BME280;7840;42.702;23.296;2022-11-04T07:28:04;95120.63;;;12.89;100.00
15477;BME280;7840;42.702;23.296;2022-11-04T07:30:42;95122.56;;;12.99;100.00
15477;BME280;7840;42.702;23.296;2022-11-04T07:33:15;95122.88;;;13.12;100.00
15477;BME280;7840;42.702;23.296;2022-11-04T07:35:52;95112.84;;;13.25;100.00
15477;BME280;7840;42.702;23.296;2022-11-04T07:38:42;95117.16;;;13.46;100.00
15477;BME280;7840;42.702;23.296;2022-11-04T07:41:09;95109.19;;;13.61;100.00
15477;BME280;7840;42.702;23.296;2022-11-04T07:43:37;95105.19;;;13.79;98.14
15477;BME280;7840;42.702;23.296;2022-11-04T07:46:06;95107.34;;;13.67;98.02
15477;BME280;7840;42.702;23.296;2022-11-04T07:48:36;95110.25;;;13.86;97.62
15477;BME280;7840;42.702;23.296;2022-11-04T07:51:04;95098.03;;;13.95;96.50
15477;BME280;7840;42.702;23.296;2022-11-04T07:53:32;95102.28;;;14.01;96.61
15477;BME280;7840;42.702;23.296;2022-11-04T07:56:03;95107.59;;;14.16;96.24
15477;BME280;7840;42.702;23.296;2022-11-04T07:58:31;95102.25;;;14.27;94.08
15477;BME280;7840;42.702;23.296;2022-11-04T08:00:59;95102.78;;;14.23;93.66
15477;BME280;7840;42.702;23.296;2022-11-04T08:03:27;95102.25;;;14.32;93.30
15477;BME280;7840;42.702;23.296;2022-11-04T08:05:57;95096.91;;;14.42;92.67
15477;BME280;7840;42.702;23.296;2022-11-04T08:08:25;95097.97;;;14.56;91.14
15477;BME280;7840;42.702;23.296;2022-11-04T08:10:54;95094.19;;;14.77;89.99
15477;BME280;7840;42.702;23.296;2022-11-04T08:13:23;95088.34;;;14.70;89.83
15477;BME280;7840;42.702;23.296;2022-11-04T08:15:53;95085.56;;;14.96;89.49
15477;BME280;7840;42.702;23.296;2022-11-04T08:18:20;95081.56;;;14.98;88.75
15477;BME280;7840;42.702;23.296;2022-11-04T08:20:48;95080.06;;;14.72;91.01
15477;BME280;7840;42.702;23.296;2022-11-04T08:23:18;95080.19;;;15.06;89.72
15477;BME280;7840;42.702;23.296;2022-11-04T08:25:46;95073.44;;;15.24;88.06
15477;BME280;7840;42.702;23.296;2022-11-04T08:28:18;95075.47;;;15.37;86.78
15477;BME280;7840;42.702;23.296;2022-11-04T08:30:55;95065.75;;;15.62;85.89
15477;BME280;7840;42.702;23.296;2022-11-04T08:33:24;95058.38;;;15.82;83.70
15477;BME280;7840;42.702;23.296;2022-11-04T08:36:06;95048.63;;;16.02;81.04
15477;BME280;7840;42.702;23.296;2022-11-04T08:38:36;95052.84;;;16.08;78.93
15477;BME280;7840;42.702;23.296;2022-11-04T08:41:05;95050.59;;;16.20;78.50
15477;BME280;7840;42.702;23.296;2022-11-04T08:43:38;95047.34;;;16.23;77.54
15477;BME280;7840;42.702;23.296;2022-11-04T08:46:09;95044.63;;;16.28;77.23
15477;BME280;7840;42.702;23.296;2022-11-04T08:48:38;95039.69;;;16.40;76.94
15477;BME280;7840;42.702;23.296;2022-11-04T08:51:11;95042.28;;;16.46;75.21
15477;BME280;7840;42.702;23.296;2022-11-04T08:53:41;95050.47;;;16.83;73.87
15477;BME280;7840;42.702;23.296;2022-11-04T08:56:11;95040.69;;;17.16;71.17
15477;BME280;7840;42.702;23.296;2022-11-04T08:58:53;95044.38;;;17.39;69.59
15477;BME280;7840;42.702;23.296;2022-11-04T09:01:24;95036.72;;;17.52;68.32
15477;BME280;7840;42.702;23.296;2022-11-04T09:03:52;95036.84;;;17.79;66.78
15477;BME280;7840;42.702;23.296;2022-11-04T09:06:21;95036.84;;;17.79;66.68
15477;BME280;7840;42.702;23.296;2022-11-04T09:08:51;95028.59;;;18.08;64.08
15477;BME280;7840;42.702;23.296;2022-11-04T09:11:20;95020.34;;;18.04;63.65
15477;BME280;7840;42.702;23.296;2022-11-04T09:13:48;95026.63;;;18.14;62.66
15477;BME280;7840;42.702;23.296;2022-11-04T09:16:20;95008.00;;;18.50;61.00
15477;BME280;7840;42.702;23.296;2022-11-04T09:18:48;95013.75;;;18.57;59.93
15477;BME280;7840;42.702;23.296;2022-11-04T09:21:16;95008.41;;;18.71;59.88
15477;BME280;7840;42.702;23.296;2022-11-04T09:23:44;95008.41;;;18.84;58.74
15477;BME280;7840;42.702;23.296;2022-11-04T09:26:15;95013.84;;;19.07;57.70
15477;BME280;7840;42.702;23.296;2022-11-04T09:29:01;94996.47;;;18.91;58.68
15477;BME280;7840;42.702;23.296;2022-11-04T09:31:30;94992.09;;;19.08;58.61
15477;BME280;7840;42.702;23.296;2022-11-04T09:33:58;95003.16;;;19.29;58.32
15477;BME280;7840;42.702;23.296;2022-11-04T09:36:25;94998.34;;;19.40;58.29
15477;BME280;7840;42.702;23.296;2022-11-04T09:38:54;94981.50;;;19.48;57.87
15477;BME280;7840;42.702;23.296;2022-11-04T09:41:41;94976.09;;;19.62;56.97
15477;BME280;7840;42.702;23.296;2022-11-04T09:44:21;94971.84;;;19.47;57.38
15477;BME280;7840;42.702;23.296;2022-11-04T09:46:51;94967.47;;;19.51;57.33
15477;BME280;7840;42.702;23.296;2022-11-04T09:49:20;94960.00;;;19.48;57.66
15477;BME280;7840;42.702;23.296;2022-11-04T09:51:51;94950.41;;;19.70;56.12
15477;BME280;7840;42.702;23.296;2022-11-04T09:54:22;94952.13;;;19.97;55.63
15477;BME280;7840;42.702;23.296;2022-11-04T09:57:15;94948.84;;;20.08;54.09
15477;BME280;7840;42.702;23.296;2022-11-04T09:59:49;94937.84;;;20.18;53.57
15477;BME280;7840;42.702;23.296;2022-11-04T10:02:39;94935.31;;;20.53;52.92
15477;BME280;7840;42.702;23.296;2022-11-04T10:05:30;94931.06;;;20.69;51.95
15477;BME280;7840;42.702;23.296;2022-11-04T10:08:31;94927.72;;;20.64;51.18
15477;BME280;7840;42.702;23.296;2022-11-04T10:11:09;94920.88;;;20.49;50.98
15477;BME280;7840;42.702;23.296;2022-11-04T10:13:51;94919.97;;;20.62;50.93
15477;BME280;7840;42.702;23.296;2022-11-04T10:16:34;94906.56;;;20.80;50.90
15477;BME280;7840;42.702;23.296;2022-11-04T10:19:16;94917.13;;;20.67;50.46
15477;BME280;7840;42.702;23.296;2022-11-04T10:22:00;94913.59;;;20.58;49.86
15477;BME280;7840;42.702;23.296;2022-11-04T10:24:48;94900.53;;;20.74;49.84
15477;BME280;7840;42.702;23.296;2022-11-04T10:27:22;94895.09;;;20.65;50.30
15477;BME280;7840;42.702;23.296;2022-11-04T10:30:11;94886.09;;;20.61;50.46
15477;BME280;7840;42.702;23.296;2022-11-04T10:32:51;94883.38;;;20.53;50.63
15477;BME280;7840;42.702;23.296;2022-11-04T10:35:28;94878.50;;;20.81;50.10
15477;BME280;7840;42.702;23.296;2022-11-04T10:38:16;94871.56;;;21.14;48.97
15477;BME280;7840;42.702;23.296;2022-11-04T10:40:47;94858.53;;;20.99;49.40
15477;BME280;7840;42.702;23.296;2022-11-04T10:43:20;94850.16;;;21.09;48.62
15477;BME280;7840;42.702;23.296;2022-11-04T10:46:00;94845.88;;;21.34;47.86
15477;BME280;7840;42.702;23.296;2022-11-04T10:48:33;94845.69;;;21.48;47.29
15477;BME280;7840;42.702;23.296;2022-11-04T10:51:04;94839.47;;;21.65;46.73
15477;BME280;7840;42.702;23.296;2022-11-04T10:53:32;94816.94;;;21.61;46.55
15477;BME280;7840;42.702;23.296;2022-11-04T10:56:05;94814.41;;;21.64;46.48
15477;BME280;7840;42.702;23.296;2022-11-04T10:58:42;94817.34;;;21.80;46.41
15477;BME280;7840;42.702;23.296;2022-11-04T11:01:27;94815.63;;;21.75;45.78
15477;BME280;7840;42.702;23.296;2022-11-04T11:03:56;94809.78;;;22.03;45.42
15477;BME280;7840;42.702;23.296;2022-11-04T11:06:28;94805.00;;;22.17;44.87
15477;BME280;7840;42.702;23.296;2022-11-04T11:09:00;94809.78;;;22.03;45.09
15477;BME280;7840;42.702;23.296;2022-11-04T11:11:43;94789.16;;;22.07;44.42
15477;BME280;7840;42.702;23.296;2022-11-04T11:14:34;94794.84;;;22.14;44.38
15477;BME280;7840;42.702;23.296;2022-11-04T11:17:25;94784.84;;;22.15;43.71
15477;BME280;7840;42.702;23.296;2022-11-04T11:20:17;94779.13;;;22.16;43.74
15477;BME280;7840;42.702;23.296;2022-11-04T11:22:49;94771.78;;;22.25;43.40
15477;BME280;7840;42.702;23.296;2022-11-04T11:25:24;94777.72;;;22.39;43.49
15477;BME280;7840;42.702;23.296;2022-11-04T11:27:55;94760.16;;;22.54;42.89
15477;BME280;7840;42.702;23.296;2022-11-04T11:30:29;94752.75;;;22.63;42.99
15477;BME280;7840;42.702;23.296;2022-11-04T11:33:19;94749.25;;;21.92;43.46
15477;BME280;7840;42.702;23.296;2022-11-04T11:36:04;94741.75;;;21.76;43.89
15477;BME280;7840;42.702;23.296;2022-11-04T11:38:49;94735.78;;;21.92;43.54
15477;BME280;7840;42.702;23.296;2022-11-04T11:41:19;94722.34;;;22.13;43.52
15477;BME280;7840;42.702;23.296;2022-11-04T11:43:55;94723.28;;;22.37;42.92
15477;BME280;7840;42.702;23.296;2022-11-04T11:46:25;94730.13;;;22.56;42.62
15477;BME280;7840;42.702;23.296;2022-11-04T11:48:56;94713.25;;;22.80;42.35
15477;BME280;7840;42.702;23.296;2022-11-04T11:51:28;94711.16;;;22.44;42.24
15477;BME280;7840;42.702;23.296;2022-11-04T11:54:16;94703.13;;;22.56;42.41
15477;BME280;7840;42.702;23.296;2022-11-04T11:57:01;94710.50;;;22.47;42.32
15477;BME280;7840;42.702;23.296;2022-11-04T11:59:39;94713.91;;;22.56;41.70
15477;BME280;7840;42.702;23.296;2022-11-04T12:02:21;94706.69;;;22.48;41.78
15477;BME280;7840;42.702;23.296;2022-11-04T12:04:56;94707.09;;;22.37;42.24
15477;BME280;7840;42.702;23.296;2022-11-04T12:07:30;94703.06;;;22.44;42.13
15477;BME280;7840;42.702;23.296;2022-11-04T12:10:09;94701.44;;;22.01;42.75
15477;BME280;7840;42.702;23.296;2022-11-04T12:12:51;94701.75;;;21.78;43.38
15477;BME280;7840;42.702;23.296;2022-11-04T12:15:31;94699.69;;;21.46;44.07
15477;BME280;7840;42.702;23.296;2022-11-04T12:18:22;94695.63;;;21.31;44.43
15477;BME280;7840;42.702;23.296;2022-11-04T12:21:01;94688.94;;;20.90;45.56
15477;BME280;7840;42.702;23.296;2022-11-04T12:23:38;94688.31;;;20.76;45.96
15477;BME280;7840;42.702;23.296;2022-11-04T12:26:19;94699.75;;;20.73;45.63
15477;BME280;7840;42.702;23.296;2022-11-04T12:29:26;94698.13;;;20.72;45.82
15477;BME280;7840;42.702;23.296;2022-11-04T12:32:03;94675.06;;;20.62;45.83
15477;BME280;7840;42.702;23.296;2022-11-04T12:34:49;94684.25;;;20.53;46.14
15477;BME280;7840;42.702;23.296;2022-11-04T12:37:30;94686.31;;;20.47;46.02
15477;BME280;7840;42.702;23.296;2022-11-04T12:40:10;94686.63;;;20.54;46.08
15477;BME280;7840;42.702;23.296;2022-11-04T12:42:51;94681.88;;;20.51;46.24
15477;BME280;7840;42.702;23.296;2022-11-04T12:45:30;94670.47;;;20.63;46.19
15477;BME280;7840;42.702;23.296;2022-11-04T12:48:06;94666.97;;;20.62;46.38
15477;BME280;7840;42.702;23.296;2022-11-04T12:50:46;94660.75;;;20.79;46.30
15477;BME280;7840;42.702;23.296;2022-11-04T12:53:47;94658.41;;;20.77;46.01
15477;BME280;7840;42.702;23.296;2022-11-04T12:56:17;94669.41;;;21.02;45.96
15477;BME280;7840;42.702;23.296;2022-11-04T12:59:28;94656.00;;;21.32;45.24
15477;BME280;7840;42.702;23.296;2022-11-04T13:02:03;94653.94;;;21.37;44.59
15477;BME280;7840;42.702;23.296;2022-11-04T13:04:49;94646.44;;;21.04;45.32
15477;BME280;7840;42.702;23.296;2022-11-04T13:07:21;94658.00;;;21.05;45.49
15477;BME280;7840;42.702;23.296;2022-11-04T13:09:57;94655.81;;;20.90;45.95
15477;BME280;7840;42.702;23.296;2022-11-04T13:12:30;94658.09;;;20.70;46.19
15477;BME280;7840;42.702;23.296;2022-11-04T13:15:16;94669.53;;;20.33;46.99
15477;BME280;7840;42.702;23.296;2022-11-04T13:17:46;94656.88;;;20.25;47.70
15477;BME280;7840;42.702;23.296;2022-11-04T13:20:24;94657.81;;;20.11;48.08
15477;BME280;7840;42.702;23.296;2022-11-04T13:22:56;94662.88;;;20.04;48.65
15477;BME280;7840;42.702;23.296;2022-11-04T13:25:40;94663.69;;;20.13;48.78
15477;BME280;7840;42.702;23.296;2022-11-04T13:28:12;94652.44;;;20.29;48.52
15477;BME280;7840;42.702;23.296;2022-11-04T13:30:45;94659.22;;;20.43;48.28
15477;BME280;7840;42.702;23.296;2022-11-04T13:33:28;94659.72;;;21.48;46.63
15477;BME280;7840;42.702;23.296;2022-11-04T13:36:05;94653.88;;;22.59;44.24
15477;BME280;7840;42.702;23.296;2022-11-04T13:38:37;94655.94;;;23.19;42.56
15477;BME280;7840;42.702;23.296;2022-11-04T13:41:21;94646.81;;;23.24;42.42